Time;durP1;ratioP1;P1;durP2;ratioP2;P2;SDS_P1;SDS_P2;PMS_P1;PMS_P2;Temp;Humidity;BMP_temperature;BMP_pressure;BME280_temperature;BME280_humidity;BME280_pressure;Samples;Min_cycle;Max_cycle;Signal;HPM_P1;HPM_P2
2021/04/22 00:00:14;;;;;;;9.65;8.75;;;13.80;95.20;13.80;99616.00;;;;342011;28;83531;-89
2021/04/22 00:00:26;;;;;;;10.25;9.25;;;13.80;95.20;13.80;99616.00;;;;339216;28;89639;-89
2021/04/22 00:00:38;;;;;;;10.52;9.48;;;13.80;95.30;13.90;99619.00;;;;342272;28;83660;-89
2021/04/22 00:00:50;;;;;;;9.90;9.00;;;13.80;95.40;13.90;99613.00;;;;340499;28;86891;-89
2021/04/22 00:01:01;;;;;;;9.35;8.45;;;13.80;95.40;14.00;99616.00;;;;340866;28;82628;-89
2021/04/22 00:01:13;;;;;;;9.00;8.10;;;13.80;95.40;13.80;99615.00;;;;343204;28;89837;-89
2021/04/22 00:01:24;;;;;;;9.48;8.52;;;13.80;95.40;13.80;99609.00;;;;339496;28;83591;-89
2021/04/22 00:01:36;;;;;;;10.07;9.15;;;13.80;95.30;13.70;99616.00;;;;341856;28;86829;-89
2021/04/22 00:01:47;;;;;;;10.55;9.50;;;13.80;95.30;13.80;99613.00;;;;342123;28;82418;-90
2021/04/22 00:01:59;;;;;;;10.27;9.25;;;13.80;95.40;13.80;99616.00;;;;340592;28;89279;-88
2021/04/22 00:02:11;;;;;;;9.73;8.80;;;13.80;95.40;13.80;99618.00;;;;340351;28;83571;-91
2021/04/22 00:02:22;;;;;;;10.02;9.02;;;13.80;95.40;13.80;99608.00;;;;341035;28;88520;-89
2021/04/22 00:02:34;;;;;;;10.65;9.25;;;13.80;95.40;13.70;99619.00;;;;339551;28;83430;-89
2021/04/22 00:02:46;;;;;;;9.93;8.98;;;13.80;95.40;13.50;99620.00;;;;340315;28;89445;-89
2021/04/22 00:02:57;;;;;;;10.13;9.13;;;13.80;95.40;13.50;99613.00;;;;340441;28;83777;-89
2021/04/22 00:03:09;;;;;;;10.38;9.48;;;13.80;95.30;13.50;99616.00;;;;341476;28;89813;-90
2021/04/22 00:03:21;;;;;;;10.40;9.50;;;13.80;95.30;13.40;99612.00;;;;341736;28;83269;-89
2021/04/22 00:03:32;;;;;;;10.32;9.43;;;13.70;95.30;13.50;99615.00;;;;341455;28;89873;-89
2021/04/22 00:03:44;;;;;;;10.27;9.38;;;13.70;95.40;13.50;99617.00;;;;343047;28;85072;-89
2021/04/22 00:03:55;;;;;;;10.13;9.23;;;13.70;95.40;13.50;99614.00;;;;339932;28;90380;-89
2021/04/22 00:04:07;;;;;;;10.02;9.13;;;13.70;95.40;13.50;99611.00;;;;341807;28;83612;-89
2021/04/22 00:04:19;;;;;;;9.65;8.85;;;13.70;95.40;13.50;99613.00;;;;341466;28;88688;-89
2021/04/22 00:04:30;;;;;;;9.55;8.73;;;13.70;95.40;13.50;99612.00;;;;340416;28;82396;-89
2021/04/22 00:04:42;;;;;;;9.73;8.82;;;13.70;95.40;13.50;99609.00;;;;339944;28;90957;-89
2021/04/22 00:04:53;;;;;;;10.00;9.10;;;13.70;95.30;13.50;99618.00;;;;341165;28;83420;-89
2021/04/22 00:05:32;;;;;;;10.40;9.50;;;13.70;95.40;13.60;99615.00;;;;341653;28;92088;-89
2021/04/22 00:05:44;;;;;;;9.95;9.05;;;13.70;95.40;13.70;99616.00;;;;339079;28;82461;-89
2021/04/22 00:05:55;;;;;;;10.07;9.07;;;13.70;95.50;13.80;99610.00;;;;341257;28;89745;-89
2021/04/22 00:06:07;;;;;;;9.88;8.90;;;13.70;95.60;13.90;99607.00;;;;341713;28;83288;-89
2021/04/22 00:06:20;;;;;;;9.55;8.55;;;13.70;95.50;13.80;99607.00;;;;338522;28;88492;-89
2021/04/22 00:06:31;;;;;;;9.82;8.93;;;13.70;95.50;13.70;99606.00;;;;341795;28;83309;-89
2021/04/22 00:06:43;;;;;;;9.85;8.98;;;13.70;95.40;13.90;99614.00;;;;339750;28;91156;-89
2021/04/22 00:06:54;;;;;;;10.02;9.13;;;13.70;95.40;14.00;99610.00;;;;337758;28;82473;-89
2021/04/22 00:07:06;;;;;;;10.45;8.85;;;13.80;95.50;14.00;99608.00;;;;340191;28;86820;-90
2021/04/22 00:07:18;;;;;;;12.00;9.25;;;13.80;95.40;14.10;99609.00;;;;339083;28;83356;-90
2021/04/22 00:07:30;;;;;;;10.90;9.00;;;13.80;95.30;14.10;99606.00;;;;340989;28;91522;-90
2021/04/22 00:07:41;;;;;;;9.52;8.52;;;13.80;95.30;14.10;99604.00;;;;340400;28;83383;-90
2021/04/22 00:07:54;;;;;;;9.07;8.25;;;13.80;95.20;14.20;99609.00;;;;340581;28;89879;-89
2021/04/22 00:08:06;;;;;;;9.68;8.77;;;13.90;95.20;14.20;99591.00;;;;342340;28;82800;-89
2021/04/22 00:08:17;;;;;;;10.52;9.00;;;13.90;95.20;14.10;99607.00;;;;341266;28;89454;-90
2021/04/22 00:08:29;;;;;;;11.35;9.13;;;13.90;95.10;14.00;99606.00;;;;341763;28;83655;-89
2021/04/22 00:08:40;;;;;;;11.05;9.88;;;13.90;95.10;13.90;99603.00;;;;340093;28;91348;-89
2021/04/22 00:08:54;;;;;;;10.80;9.80;;;13.90;95.10;13.90;99610.00;;;;341383;28;84705;-90
2021/04/22 00:09:08;;;;;;;10.57;9.65;;;13.90;95.00;13.90;99608.00;;;;339892;28;92872;-89
2021/04/22 00:09:19;;;;;;;10.18;9.27;;;13.90;95.00;14.00;99605.00;;;;340371;28;84177;-90
2021/04/22 00:09:30;;;;;;;10.38;9.48;;;13.90;95.10;14.00;99602.00;;;;338533;28;91828;-90
2021/04/22 00:09:41;;;;;;;9.98;9.05;;;13.90;95.10;14.10;99601.00;;;;339191;28;83357;-89
2021/04/22 00:09:53;;;;;;;9.52;8.63;;;13.90;95.20;14.20;99600.00;;;;341402;28;90708;-89
2021/04/22 00:10:12;;;;;;;9.10;8.25;;;13.90;95.10;14.20;99596.00;;;;340284;28;84655;-89
2021/04/22 00:10:41;;;;;;;9.35;8.45;;;13.90;95.00;14.20;99605.00;;;;341110;28;91217;-89
2021/04/22 00:10:53;;;;;;;9.50;8.63;;;13.90;95.00;14.30;99602.00;;;;340014;28;83511;-89
2021/04/22 00:11:04;;;;;;;9.13;8.32;;;13.90;94.90;14.30;99608.00;;;;341131;28;91688;-90
2021/04/22 00:11:15;;;;;;;8.73;8.02;;;14.00;94.90;14.30;99595.00;;;;341627;28;85113;-90
2021/04/22 00:11:27;;;;;;;9.25;8.45;;;14.00;94.90;14.30;99609.00;;;;341367;28;87991;-89
2021/04/22 00:11:38;;;;;;;9.23;8.43;;;14.00;94.90;14.40;99602.00;;;;340365;28;83474;-89
2021/04/22 00:11:50;;;;;;;9.23;8.43;;;14.00;94.80;14.30;99598.00;;;;340143;28;89549;-89
2021/04/22 00:12:02;;;;;;;9.27;8.43;;;14.00;94.80;14.30;99605.00;;;;341576;28;83439;-89
2021/04/22 00:12:13;;;;;;;9.23;8.43;;;14.10;94.80;14.20;99595.00;;;;341139;28;90552;-89
2021/04/22 00:12:25;;;;;;;9.80;8.90;;;14.10;94.70;14.20;99605.00;;;;343074;28;84651;-90
2021/04/22 00:12:36;;;;;;;9.70;8.80;;;14.10;94.70;14.20;99595.00;;;;342722;28;91307;-89
2021/04/22 00:12:47;;;;;;;9.88;8.98;;;14.10;94.60;14.10;99607.00;;;;341470;28;83533;-90
2021/04/22 00:12:59;;;;;;;10.35;9.35;;;14.10;94.60;14.20;99600.00;;;;342675;28;91210;-90
2021/04/22 00:13:12;;;;;;;10.20;9.20;;;14.10;94.60;14.30;99597.00;;;;341701;28;83520;-89
2021/04/22 00:13:26;;;;;;;9.93;8.95;;;14.10;94.60;14.20;99604.00;;;;337466;28;87444;-90
2021/04/22 00:13:38;;;;;;;10.43;9.43;;;14.10;94.70;14.20;99597.00;;;;338980;28;83749;-89
2021/04/22 00:13:49;;;;;;;10.52;9.52;;;14.10;94.70;14.10;99606.00;;;;340194;28;93271;-89
2021/04/22 00:14:01;;;;;;;10.10;9.25;;;14.10;94.70;14.00;99610.00;;;;341339;28;82509;-89
2021/04/22 00:14:13;;;;;;;10.43;9.43;;;14.10;94.70;14.00;99596.00;;;;341389;28;89771;-89
2021/04/22 00:14:24;;;;;;;10.35;9.35;;;14.00;94.70;14.20;99606.00;;;;341552;28;84381;-89
2021/04/22 00:14:36;;;;;;;10.93;9.73;;;14.00;94.80;14.20;99599.00;;;;341364;28;92172;-90
2021/04/22 00:14:47;;;;;;;10.85;9.75;;;14.00;94.80;14.10;99598.00;;;;338979;28;84662;-89
2021/04/22 00:14:58;;;;;;;10.52;9.48;;;14.00;94.80;14.10;99610.00;;;;341216;28;91786;-89
2021/04/22 00:15:18;;;;;;;10.15;9.25;;;14.00;94.80;14.10;99599.00;;;;341616;28;85609;-89
2021/04/22 00:15:30;;;;;;;10.00;9.20;;;14.00;94.80;14.00;99604.00;;;;341295;28;89133;-89
2021/04/22 00:15:41;;;;;;;9.68;8.85;;;14.00;94.80;14.00;99603.00;;;;341694;28;85748;-90
2021/04/22 00:15:53;;;;;;;10.18;9.23;;;14.00;94.80;13.90;99605.00;;;;341276;28;92358;-89
2021/04/22 00:16:05;;;;;;;10.63;9.63;;;14.00;94.80;13.90;99600.00;;;;342774;28;83470;-89
2021/04/22 00:16:17;;;;;;;10.20;9.25;;;14.00;94.80;14.00;99600.00;;;;341451;28;89564;-89
2021/04/22 00:16:28;;;;;;;9.73;8.82;;;13.90;94.90;14.10;99597.00;;;;340309;28;84635;-90
2021/04/22 00:16:40;;;;;;;9.70;8.80;;;13.90;94.90;14.00;99607.00;;;;339928;28;89838;-89
2021/04/22 00:16:51;;;;;;;9.75;8.85;;;13.90;94.90;13.90;99600.00;;;;341258;28;82540;-90
2021/04/22 00:17:07;;;;;;;10.30;9.40;;;13.90;94.90;14.10;99605.00;;;;339276;28;90945;-89
2021/04/22 00:17:19;;;;;;;10.50;9.57;;;13.90;94.90;14.00;99602.00;;;;340299;28;83554;-89
2021/04/22 00:17:30;;;;;;;9.98;9.07;;;13.90;94.90;14.10;99601.00;;;;339685;28;91170;-89
2021/04/22 00:17:46;;;;;;;10.10;9.18;;;13.90;94.90;14.00;99610.00;;;;341779;28;83388;-89
2021/04/22 00:17:57;;;;;;;11.13;10.07;;;13.90;94.90;13.90;99614.00;;;;341224;28;90597;-90
2021/04/22 00:18:09;;;;;;;11.78;10.68;;;13.90;94.90;14.00;99609.00;;;;341427;28;83694;-89
2021/04/22 00:18:22;;;;;;;10.98;9.98;;;13.90;94.90;13.90;99612.00;;;;339989;28;91912;-89
2021/04/22 00:18:33;;;;;;;10.68;9.75;;;13.90;95.00;14.00;99603.00;;;;338855;28;87724;-89
2021/04/22 00:18:44;;;;;;;10.23;9.32;;;13.90;95.00;14.00;99609.00;;;;340000;28;88055;-90
2021/04/22 00:18:58;;;;;;;10.38;9.43;;;13.90;95.10;14.00;99610.00;;;;341793;28;82520;-89
2021/04/22 00:19:09;;;;;;;10.70;9.77;;;13.90;95.00;14.00;99613.00;;;;340147;28;89157;-90
2021/04/22 00:19:21;;;;;;;10.85;9.85;;;13.90;94.90;14.00;99605.00;;;;341632;28;83489;-89
2021/04/22 00:19:32;;;;;;;10.25;9.25;;;13.90;95.00;14.10;99610.00;;;;341421;28;87159;-89
2021/04/22 00:19:43;;;;;;;10.32;9.32;;;13.90;95.10;14.10;99604.00;;;;340515;28;83389;-89
2021/04/22 00:19:55;;;;;;;13.48;9.82;;;13.90;95.10;14.10;99610.00;;;;340721;28;91947;-90
2021/04/22 00:20:08;;;;;;;13.43;9.85;;;13.90;95.00;13.90;99603.00;;;;341184;28;84801;-89
2021/04/22 00:20:19;;;;;;;13.57;10.43;;;13.90;94.90;13.90;99607.00;;;;341194;28;91485;-89
2021/04/22 00:20:31;;;;;;;10.98;9.98;;;13.90;95.00;13.80;99603.00;;;;341584;28;83245;-89
2021/04/22 00:20:47;;;;;;;10.77;9.88;;;13.90;95.00;13.80;99608.00;;;;341222;28;90328;-89
2021/04/22 00:20:58;;;;;;;10.35;9.40;;;13.90;95.10;14.00;99603.00;;;;338896;28;87813;-87
2021/04/22 00:21:10;;;;;;;10.02;9.02;;;13.90;95.30;14.10;99601.00;;;;342458;28;91695;-89
2021/04/22 00:21:21;;;;;;;10.23;9.13;;;13.90;95.10;14.10;99607.00;;;;340453;28;84289;-90
2021/04/22 00:21:33;;;;;;;10.30;9.27;;;13.90;95.00;14.10;99598.00;;;;340236;28;88592;-90
2021/04/22 00:21:44;;;;;;;10.15;9.15;;;13.90;95.00;14.10;99606.00;;;;341750;28;82468;-90
2021/04/22 00:21:56;;;;;;;10.57;9.57;;;13.90;95.00;14.10;99605.00;;;;340125;28;90617;-90
2021/04/22 00:22:07;;;;;;;10.70;9.70;;;13.90;95.00;13.90;99606.00;;;;343178;28;83272;-89
2021/04/22 00:22:19;;;;;;;10.88;9.75;;;13.90;94.90;13.90;99598.00;;;;338852;28;88002;-89
2021/04/22 00:22:30;;;;;;;10.43;9.02;;;13.90;95.20;13.80;99599.00;;;;339139;28;82511;-90
2021/04/22 00:22:42;;;;;;;10.18;9.10;;;13.90;94.90;14.00;99602.00;;;;341476;28;89267;-89
2021/04/22 00:22:54;;;;;;;10.73;9.70;;;13.90;94.90;14.00;99608.00;;;;339510;28;84222;-90
2021/04/22 00:23:09;;;;;;;11.30;10.30;;;13.90;94.90;13.80;99603.00;;;;340563;28;90885;-90
2021/04/22 00:23:20;;;;;;;11.38;10.38;;;13.90;94.90;13.70;99606.00;;;;340381;28;85023;-89
2021/04/22 00:23:32;;;;;;;10.57;9.68;;;13.90;94.90;13.90;99601.00;;;;340010;28;92118;-90
2021/04/22 00:23:43;;;;;;;10.30;9.38;;;13.90;94.90;13.90;99597.00;;;;341564;28;85632;-89
2021/04/22 00:23:54;;;;;;;10.43;9.43;;;13.90;94.90;14.00;99615.00;;;;342167;28;90549;-90
2021/04/22 00:24:07;;;;;;;11.18;10.07;;;13.90;95.00;13.90;99604.00;;;;341609;28;84269;-89
2021/04/22 00:24:18;;;;;;;11.60;10.50;;;13.90;94.90;14.00;99604.00;;;;340007;28;89666;-89
2021/04/22 00:24:30;;;;;;;10.90;9.90;;;13.90;95.00;14.00;99604.00;;;;339133;28;84491;-89
2021/04/22 00:24:41;;;;;;;10.45;9.52;;;13.90;95.00;13.90;99606.00;;;;341396;28;88366;-89
2021/04/22 00:24:53;;;;;;;10.80;9.80;;;13.90;95.00;13.90;99597.00;;;;341726;28;83409;-89
2021/04/22 00:25:05;;;;;;;10.45;9.45;;;13.90;94.90;13.90;99606.00;;;;340055;28;91691;-89
2021/04/22 00:25:17;;;;;;;10.38;9.48;;;13.90;94.90;13.90;99599.00;;;;340637;28;83456;-89
2021/04/22 00:25:28;;;;;;;10.73;9.82;;;13.90;95.30;13.80;99604.00;;;;341380;28;89292;-89
2021/04/22 00:25:41;;;;;;;10.50;9.60;;;13.90;94.90;13.80;99605.00;;;;338992;28;83336;-90
2021/04/22 00:25:53;;;;;;;10.20;9.30;;;13.80;94.90;13.90;99606.00;;;;342301;28;90522;-90
2021/04/22 00:26:04;;;;;;;10.30;9.40;;;13.80;94.90;13.80;99601.00;;;;340202;28;83409;-89
2021/04/22 00:26:15;;;;;;;10.32;9.38;;;13.80;94.90;13.80;99601.00;;;;339965;28;90903;-89
2021/04/22 00:26:27;;;;;;;10.00;9.07;;;13.80;94.90;13.80;99613.00;;;;341683;28;83891;-89
2021/04/22 00:26:39;;;;;;;10.02;9.13;;;13.80;94.90;13.80;99598.00;;;;341051;28;90781;-89
2021/04/22 00:26:51;;;;;;;10.40;9.43;;;13.80;94.90;13.80;99599.00;;;;341437;28;84237;-89
2021/04/22 00:27:02;;;;;;;11.15;10.15;;;13.80;95.00;13.90;99602.00;;;;340057;28;90457;-89
2021/04/22 00:27:14;;;;;;;11.02;10.00;;;13.80;95.00;13.90;99610.00;;;;341552;28;84321;-90
2021/04/22 00:27:25;;;;;;;10.70;9.70;;;13.80;95.10;13.90;99608.00;;;;339860;28;92291;-89
2021/04/22 00:27:36;;;;;;;10.57;9.60;;;13.80;95.10;13.90;99597.00;;;;340318;28;84064;-90
2021/04/22 00:27:48;;;;;;;10.90;9.90;;;13.80;95.00;13.80;99600.00;;;;341399;28;89220;-90
2021/04/22 00:28:05;;;;;;;11.20;10.23;;;13.80;95.00;13.80;99612.00;;;;341804;28;83403;-89
2021/04/22 00:28:16;;;;;;;10.35;9.45;;;13.80;95.00;13.80;99609.00;;;;343968;28;92054;-89
2021/04/22 00:28:28;;;;;;;9.63;8.80;;;13.80;95.00;13.80;99599.00;;;;340211;28;86646;-90
2021/04/22 00:28:39;;;;;;;9.15;8.35;;;13.80;95.30;13.90;99604.00;;;;340072;28;88358;-90
2021/04/22 00:28:52;;;;;;;9.10;8.30;;;13.80;95.10;13.80;99606.00;;;;339576;28;83642;-89
2021/04/22 00:29:04;;;;;;;9.50;8.63;;;13.80;95.00;13.80;99604.00;;;;341429;28;90177;-89
2021/04/22 00:29:16;;;;;;;10.05;9.05;;;13.80;95.00;13.80;99604.00;;;;344455;28;83482;-90
2021/04/22 00:29:27;;;;;;;9.88;8.88;;;13.80;95.00;13.80;99605.00;;;;343723;28;90427;-90
2021/04/22 00:29:38;;;;;;;9.65;8.70;;;13.80;95.10;13.70;99599.00;;;;340470;28;83285;-90
2021/04/22 00:29:50;;;;;;;9.93;9.02;;;13.80;95.10;13.70;99608.00;;;;342450;28;93635;-89
2021/04/22 00:30:04;;;;;;;10.20;9.23;;;13.80;95.20;13.70;99614.00;;;;340428;28;83376;-89
2021/04/22 00:30:17;;;;;;;10.45;9.45;;;13.80;95.20;13.70;99608.00;;;;338650;28;89187;-89
2021/04/22 00:30:29;;;;;;;10.75;9.80;;;13.80;95.20;13.80;99607.00;;;;340453;28;83232;-89
2021/04/22 00:30:41;;;;;;;10.85;9.85;;;13.80;95.30;13.80;99606.00;;;;341285;28;91669;-89
2021/04/22 00:30:53;;;;;;;10.25;9.30;;;13.70;95.20;13.90;99612.00;;;;340303;28;83744;-89
2021/04/22 00:31:04;;;;;;;9.52;8.63;;;13.80;95.30;14.00;99608.00;;;;338495;28;90945;-90
2021/04/22 00:31:16;;;;;;;9.55;8.65;;;13.80;95.30;14.10;99607.00;;;;337664;28;84806;-89
2021/04/22 00:31:27;;;;;;;9.95;9.05;;;13.80;95.30;14.10;99607.00;;;;342231;28;90875;-89
2021/04/22 00:31:39;;;;;;;9.82;8.93;;;13.80;95.30;14.10;99605.00;;;;341680;28;84601;-89
2021/04/22 00:31:51;;;;;;;10.15;9.23;;;13.90;95.20;14.00;99609.00;;;;341618;28;91859;-89
2021/04/22 00:32:03;;;;;;;11.02;9.88;;;13.90;95.20;14.00;99606.00;;;;341750;28;83797;-89
2021/04/22 00:32:15;;;;;;;11.35;10.15;;;13.90;95.20;14.00;99611.00;;;;342415;28;90392;-89
2021/04/22 00:32:26;;;;;;;10.57;9.55;;;13.90;95.20;14.00;99609.00;;;;341783;28;82364;-89
2021/04/22 00:32:39;;;;;;;9.93;9.02;;;13.90;95.20;14.10;99602.00;;;;341310;28;91499;-89
2021/04/22 00:32:51;;;;;;;9.15;8.35;;;13.90;95.20;14.10;99605.00;;;;340373;28;84307;-90
2021/04/22 00:33:04;;;;;;;9.50;8.70;;;13.90;95.20;14.20;99603.00;;;;340036;28;90807;-89
2021/04/22 00:33:19;;;;;;;10.15;9.30;;;13.90;95.20;14.30;99601.00;;;;344169;28;83708;-89
2021/04/22 00:33:30;;;;;;;10.73;9.73;;;13.90;95.10;14.20;99600.00;;;;338635;28;89482;-90
2021/04/22 00:33:42;;;;;;;10.90;9.90;;;13.90;95.00;14.20;99602.00;;;;341715;28;83561;-90
2021/04/22 00:33:53;;;;;;;11.02;10.02;;;13.90;95.00;14.10;99599.00;;;;339886;28;91944;-90
2021/04/22 00:34:04;;;;;;;10.60;9.70;;;13.90;95.00;14.10;99602.00;;;;341665;28;83913;-89
2021/04/22 00:34:16;;;;;;;10.88;9.98;;;13.90;95.00;14.10;99605.00;;;;340005;28;88750;-89
2021/04/22 00:34:27;;;;;;;11.02;10.07;;;13.90;95.00;14.00;99602.00;;;;340340;28;84976;-89
2021/04/22 00:34:39;;;;;;;11.32;10.32;;;13.90;94.90;14.00;99600.00;;;;341492;28;88238;-89
2021/04/22 00:34:50;;;;;;;10.82;9.88;;;13.90;95.00;14.00;99598.00;;;;339651;28;86119;-90
2021/04/22 00:35:02;;;;;;;10.90;9.90;;;13.90;95.00;13.90;99600.00;;;;341078;28;91978;-89
2021/04/22 00:35:14;;;;;;;10.60;9.52;;;13.90;94.90;13.80;99606.00;;;;341698;28;83978;-89
2021/04/22 00:35:25;;;;;;;9.80;8.90;;;13.80;94.90;13.90;99604.00;;;;337449;28;88937;-89
2021/04/22 00:35:37;;;;;;;9.75;8.77;;;13.90;95.00;14.00;99600.00;;;;340307;28;84114;-89
2021/04/22 00:35:48;;;;;;;10.00;9.00;;;13.90;95.10;14.00;99603.00;;;;339976;28;90430;-89
2021/04/22 00:36:00;;;;;;;10.48;9.38;;;13.80;95.10;14.10;99603.00;;;;341366;28;83917;-90
2021/04/22 00:36:11;;;;;;;10.15;9.15;;;13.90;95.10;14.10;99604.00;;;;343955;28;90242;-90
2021/04/22 00:36:22;;;;;;;10.02;8.98;;;13.90;95.10;14.00;99596.00;;;;340340;28;83427;-90
2021/04/22 00:36:34;;;;;;;10.27;9.38;;;13.90;95.00;13.90;99604.00;;;;341398;28;89176;-89
2021/04/22 00:36:45;;;;;;;10.90;9.75;;;13.90;95.00;13.90;99604.00;;;;342976;28;84025;-90
2021/04/22 00:36:56;;;;;;;10.43;9.43;;;13.90;94.90;14.00;99594.00;;;;344006;28;91413;-90
2021/04/22 00:37:08;;;;;;;9.95;9.02;;;13.90;94.90;14.00;99600.00;;;;341702;28;84880;-89
2021/04/22 00:37:19;;;;;;;9.80;8.85;;;13.90;95.00;13.90;99606.00;;;;339920;28;91655;-89
2021/04/22 00:37:31;;;;;;;10.38;9.27;;;13.90;94.90;13.80;99602.00;;;;342967;28;83785;-89
2021/04/22 00:37:42;;;;;;;10.80;9.38;;;13.90;94.90;13.70;99603.00;;;;341300;28;90141;-89
2021/04/22 00:37:53;;;;;;;11.00;9.90;;;13.80;94.90;13.60;99600.00;;;;339781;28;83082;-90
2021/04/22 00:38:05;;;;;;;10.98;9.88;;;13.80;94.90;13.70;99598.00;;;;341701;28;92545;-90
2021/04/22 00:38:17;;;;;;;10.95;9.85;;;13.80;95.00;13.70;99599.00;;;;341707;28;83630;-90
2021/04/22 00:38:29;;;;;;;10.80;9.80;;;13.80;95.00;13.60;99609.00;;;;342653;28;91582;-89
2021/04/22 00:38:41;;;;;;;10.60;9.57;;;13.80;94.90;13.50;99600.00;;;;343072;28;84082;-89
2021/04/22 00:38:53;;;;;;;10.68;9.55;;;13.80;94.90;13.50;99594.00;;;;338597;28;91952;-90
2021/04/22 00:39:06;;;;;;;10.32;9.20;;;13.80;95.00;13.50;99595.00;;;;341800;28;82389;-89
2021/04/22 00:39:17;;;;;;;10.38;9.30;;;13.80;95.00;13.50;99595.00;;;;340125;28;89594;-89
2021/04/22 00:39:28;;;;;;;10.23;9.23;;;13.80;95.00;13.50;99596.00;;;;341509;28;84106;-89
2021/04/22 00:39:40;;;;;;;10.40;9.38;;;13.70;95.20;13.40;99599.00;;;;344115;28;90036;-90
2021/04/22 00:39:51;;;;;;;10.57;9.48;;;13.70;95.00;13.40;99592.00;;;;342782;28;85466;-89
2021/04/22 00:40:08;;;;;;;11.50;9.27;;;13.70;95.00;13.60;99604.00;;;;340038;28;89525;-89
2021/04/22 00:40:23;;;;;;;10.30;9.20;;;13.70;95.10;13.70;99596.00;;;;341451;28;83522;-89
2021/04/22 00:40:36;;;;;;;10.38;9.48;;;13.70;95.10;13.60;99598.00;;;;342770;28;88777;-89
2021/04/22 00:40:48;;;;;;;10.52;9.52;;;13.70;95.10;13.60;99603.00;;;;341447;28;83483;-89
2021/04/22 00:40:59;;;;;;;10.43;9.48;;;13.70;95.10;13.60;99602.00;;;;339508;28;89425;-90
2021/04/22 00:41:11;;;;;;;10.57;9.50;;;13.70;95.10;13.60;99603.00;;;;341749;28;82382;-89
2021/04/22 00:41:22;;;;;;;10.68;9.43;;;13.70;95.10;13.60;99607.00;;;;341332;28;89574;-89
2021/04/22 00:41:34;;;;;;;10.68;9.20;;;13.70;95.20;13.50;99601.00;;;;340376;28;83496;-89
2021/04/22 00:41:45;;;;;;;9.98;8.98;;;13.70;95.20;13.50;99609.00;;;;341283;28;90565;-89
2021/04/22 00:41:56;;;;;;;9.48;8.52;;;13.70;95.20;13.60;99604.00;;;;344156;28;82758;-90
2021/04/22 00:42:08;;;;;;;9.43;8.43;;;13.70;95.20;13.70;99599.00;;;;341137;28;89953;-89
2021/04/22 00:42:20;;;;;;;9.13;8.23;;;13.70;95.30;13.60;99597.00;;;;342734;28;83441;-89
2021/04/22 00:42:31;;;;;;;8.95;8.15;;;13.70;95.50;13.60;99600.00;;;;342690;28;89589;-89
2021/04/22 00:42:43;;;;;;;9.43;8.55;;;13.70;95.20;13.50;99609.00;;;;343032;28;83454;-89
2021/04/22 00:42:58;;;;;;;9.95;9.00;;;13.70;95.20;13.50;99606.00;;;;344057;28;89689;-90
2021/04/22 00:43:12;;;;;;;9.50;8.57;;;13.60;95.20;13.40;99600.00;;;;343082;28;83625;-89
2021/04/22 00:43:24;;;;;;;9.20;8.30;;;13.60;95.20;13.50;99602.00;;;;339660;28;90005;-89
2021/04/22 00:43:35;;;;;;;9.23;8.38;;;13.60;95.20;13.50;99603.00;;;;341711;28;83447;-89
2021/04/22 00:43:47;;;;;;;9.27;8.32;;;13.60;95.20;13.60;99605.00;;;;339555;28;89617;-89
2021/04/22 00:43:59;;;;;;;9.48;8.30;;;13.60;95.20;13.50;99601.00;;;;341175;28;83496;-89
2021/04/22 00:44:10;;;;;;;9.18;8.27;;;13.60;95.20;13.60;99599.00;;;;338406;28;91173;-89
2021/04/22 00:44:21;;;;;;;9.27;8.48;;;13.60;95.20;13.70;99602.00;;;;342397;28;83419;-90
2021/04/22 00:44:33;;;;;;;9.05;8.30;;;13.60;95.60;13.70;99594.00;;;;341319;28;89401;-89
2021/04/22 00:44:47;;;;;;;10.10;9.10;;;13.70;95.40;13.80;99600.00;;;;341449;28;82760;-90
2021/04/22 00:44:58;;;;;;;9.70;8.73;;;13.70;95.40;13.90;99604.00;;;;341241;28;91570;-89
2021/04/22 00:45:10;;;;;;;9.13;8.35;;;13.70;95.30;14.00;99604.00;;;;340356;28;83708;-90
2021/04/22 00:45:22;;;;;;;8.60;7.90;;;13.70;95.20;14.00;99597.00;;;;341158;28;89988;-89
2021/04/22 00:45:33;;;;;;;9.02;8.23;;;13.70;95.20;14.00;99605.00;;;;340259;28;84826;-89
2021/04/22 00:45:45;;;;;;;9.18;8.38;;;13.70;95.10;13.90;99606.00;;;;341294;28;93180;-89
2021/04/22 00:45:57;;;;;;;9.85;8.95;;;13.70;95.00;13.90;99592.00;;;;338513;28;85426;-90
2021/04/22 00:46:08;;;;;;;10.13;9.13;;;13.70;95.00;13.80;99595.00;;;;342718;28;89270;-90
2021/04/22 00:46:19;;;;;;;10.27;9.27;;;13.70;94.90;13.70;99596.00;;;;341671;28;84593;-90
2021/04/22 00:46:31;;;;;;;9.88;8.88;;;13.70;94.90;13.70;99600.00;;;;339833;28;91540;-89
2021/04/22 00:46:42;;;;;;;9.00;8.18;;;13.70;94.90;13.70;99590.00;;;;341675;28;83374;-89
2021/04/22 00:46:54;;;;;;;8.55;7.80;;;13.70;95.00;13.60;99595.00;;;;339974;28;91658;-89
2021/04/22 00:47:07;;;;;;;9.10;8.25;;;13.70;95.00;13.60;99601.00;;;;341359;28;83592;-89
2021/04/22 00:47:19;;;;;;;9.82;8.65;;;13.70;95.00;13.50;99596.00;;;;342598;28;90763;-89
2021/04/22 00:47:30;;;;;;;9.85;8.80;;;13.60;95.00;13.50;99604.00;;;;341669;28;82413;-89
2021/04/22 00:47:42;;;;;;;9.25;8.30;;;13.60;95.00;13.50;99599.00;;;;341306;28;90328;-89
2021/04/22 00:47:54;;;;;;;9.07;8.30;;;13.60;95.00;13.50;99598.00;;;;342062;28;85201;-89
2021/04/22 00:48:06;;;;;;;9.57;8.70;;;13.60;95.00;13.50;99593.00;;;;341375;28;88248;-89
2021/04/22 00:48:23;;;;;;;9.77;8.88;;;13.60;95.10;13.40;99587.00;;;;339102;28;83398;-89
2021/04/22 00:48:34;;;;;;;10.00;9.02;;;13.60;95.10;13.50;99590.00;;;;339847;28;89137;-90
2021/04/22 00:48:46;;;;;;;9.45;8.55;;;13.60;95.10;13.60;99594.00;;;;341714;28;82349;-89
2021/04/22 00:48:58;;;;;;;9.10;8.30;;;13.60;95.20;13.70;99598.00;;;;342699;28;89038;-89
2021/04/22 00:49:10;;;;;;;9.57;8.68;;;13.60;95.20;13.80;99594.00;;;;341565;28;83866;-89
2021/04/22 00:49:21;;;;;;;10.25;8.95;;;13.60;95.20;13.80;99595.00;;;;341398;28;88096;-89
2021/04/22 00:49:33;;;;;;;10.43;8.95;;;13.60;95.20;13.70;99595.00;;;;344289;28;84047;-90
2021/04/22 00:49:44;;;;;;;14.76;9.40;;;13.60;95.20;13.80;99594.00;;;;341216;28;94036;-89
2021/04/22 00:49:56;;;;;;;12.75;9.15;;;13.60;95.20;13.90;99597.00;;;;341678;28;82765;-89
2021/04/22 00:50:19;;;;;;;12.35;8.70;;;13.60;95.20;14.00;99592.00;;;;341955;28;91073;-89
2021/04/22 00:50:33;;;;;;;8.80;8.00;;;13.70;95.20;13.70;99586.00;;;;343065;28;82814;-89
2021/04/22 00:50:44;;;;;;;9.15;8.35;;;13.70;95.00;13.60;99589.00;;;;341204;28;90473;-89
2021/04/22 00:50:56;;;;;;;9.43;8.52;;;13.70;95.00;13.50;99591.00;;;;343827;28;82695;-89
2021/04/22 00:51:07;;;;;;;9.65;8.68;;;13.70;95.00;13.50;99588.00;;;;343986;28;91957;-89
2021/04/22 00:51:19;;;;;;;9.52;8.55;;;13.60;95.00;13.60;99588.00;;;;343127;28;82368;-89
2021/04/22 00:51:30;;;;;;;9.50;8.57;;;13.60;95.10;13.70;99590.00;;;;342353;28;91141;-89
2021/04/22 00:51:42;;;;;;;9.10;8.20;;;13.60;95.10;13.80;99593.00;;;;340162;28;83475;-89
2021/04/22 00:51:53;;;;;;;8.45;7.72;;;13.60;95.10;13.90;99596.00;;;;342049;28;92547;-89
2021/04/22 00:52:05;;;;;;;8.68;7.90;;;13.70;95.10;13.70;99593.00;;;;338978;28;83583;-90
2021/04/22 00:52:16;;;;;;;9.50;8.70;;;13.70;95.10;13.50;99588.00;;;;341323;28;89818;-89
2021/04/22 00:52:28;;;;;;;10.02;9.07;;;13.70;95.00;13.50;99593.00;;;;340439;28;83228;-88
2021/04/22 00:52:39;;;;;;;9.77;8.88;;;13.70;95.00;13.50;99586.00;;;;341369;28;89667;-89
2021/04/22 00:52:55;;;;;;;8.82;7.93;;;13.70;95.00;13.40;99585.00;;;;339822;28;83494;-89
2021/04/22 00:53:06;;;;;;;8.40;7.60;;;13.70;95.00;13.40;99589.00;;;;339731;28;91160;-89
2021/04/22 00:53:19;;;;;;;8.82;7.93;;;13.70;95.00;13.40;99595.00;;;;339135;28;84716;-89
2021/04/22 00:53:31;;;;;;;9.65;8.65;;;13.60;95.00;13.40;99593.00;;;;339921;28;89362;-89
2021/04/22 00:53:42;;;;;;;9.77;8.80;;;13.60;95.00;13.40;99596.00;;;;341765;28;83368;-89
2021/04/22 00:53:54;;;;;;;9.82;8.93;;;13.60;95.00;13.60;99597.00;;;;343982;28;90346;-90
2021/04/22 00:54:06;;;;;;;9.25;8.45;;;13.60;95.00;13.70;99591.00;;;;341689;28;82440;-89
2021/04/22 00:54:17;;;;;;;9.13;8.32;;;13.60;95.10;13.70;99591.00;;;;339997;28;88806;-89